createdAt,value
2018-09-19T00:02:09.122Z,5.60
2018-09-19T00:04:38.811Z,5.43
2018-09-19T00:07:08.401Z,6.20
2018-09-19T00:09:39.662Z,6.37
2018-09-19T00:12:08.019Z,5.40
2018-09-19T00:14:36.413Z,5.40
2018-09-19T00:17:04.758Z,6.47
2018-09-19T00:19:33.102Z,5.77
2018-09-19T00:22:01.495Z,6.23
2018-09-19T00:24:29.890Z,6.10
2018-09-19T00:26:58.208Z,6.67
2018-09-19T00:29:26.526Z,5.97
2018-09-19T00:31:54.898Z,6.13
2018-09-19T00:34:23.278Z,6.70
2018-09-19T00:36:51.653Z,6.30
2018-09-19T00:39:19.994Z,6.70
2018-09-19T00:41:48.358Z,7.03
2018-09-19T00:44:16.691Z,6.17
2018-09-19T00:46:45.060Z,5.67
2018-09-19T00:49:13.400Z,6.73
2018-09-19T00:51:41.736Z,7.30
2018-09-19T00:54:10.071Z,6.13
2018-09-19T00:56:38.407Z,6.40
2018-09-19T00:59:06.743Z,6.27
2018-09-19T01:01:35.135Z,6.23
2018-09-19T01:04:03.500Z,7.27
2018-09-19T01:06:31.898Z,6.03
2018-09-19T01:09:00.759Z,6.37
2018-09-19T01:11:29.106Z,6.40
2018-09-19T01:13:57.453Z,6.10
2018-09-19T01:16:25.798Z,6.17
2018-09-19T01:18:54.155Z,5.63
2018-09-19T01:21:22.507Z,5.43
2018-09-19T01:23:50.848Z,5.57
2018-09-19T01:26:19.199Z,6.30
2018-09-19T01:28:47.526Z,5.80
2018-09-19T01:31:15.861Z,5.57
2018-09-19T01:33:44.218Z,5.60
2018-09-19T01:36:12.540Z,6.07
2018-09-19T01:38:40.924Z,6.07
2018-09-19T01:41:09.287Z,6.77
2018-09-19T01:43:37.621Z,6.47
2018-09-19T01:46:07.168Z,5.67
2018-09-19T01:48:35.525Z,6.67
2018-09-19T01:51:03.872Z,6.23
2018-09-19T01:53:32.194Z,6.37
2018-09-19T01:56:00.546Z,5.70
2018-09-19T01:58:29.422Z,5.90
2018-09-19T02:00:57.772Z,6.23
2018-09-19T02:03:26.106Z,6.50
2018-09-19T02:05:54.443Z,6.73
2018-09-19T02:08:22.812Z,5.90
2018-09-19T02:10:51.157Z,6.30
2018-09-19T02:13:19.502Z,6.90
2018-09-19T02:15:47.851Z,6.93
2018-09-19T02:18:16.293Z,6.33
2018-09-19T02:20:44.657Z,6.97
2018-09-19T02:23:13.015Z,5.80
2018-09-19T02:25:41.355Z,6.70
2018-09-19T02:28:09.717Z,6.27
2018-09-19T02:30:38.090Z,6.47
2018-09-19T02:33:06.435Z,6.87
2018-09-19T02:35:34.770Z,7.03
2018-09-19T02:38:03.128Z,7.23
2018-09-19T02:40:31.459Z,6.30
2018-09-19T02:42:59.780Z,6.93
2018-09-19T02:45:28.103Z,6.10
2018-09-19T02:47:56.539Z,6.20
2018-09-19T02:50:24.916Z,6.63
2018-09-19T02:52:56.187Z,7.07
2018-09-19T02:55:25.389Z,7.10
2018-09-19T02:57:54.185Z,6.63
2018-09-19T03:00:22.556Z,6.63
2018-09-19T03:02:51.386Z,5.93
2018-09-19T03:05:19.943Z,6.53
2018-09-19T03:07:48.316Z,6.27
2018-09-19T03:10:16.661Z,6.60
2018-09-19T03:12:45.022Z,6.67
2018-09-19T03:15:13.387Z,6.90
2018-09-19T03:17:41.858Z,6.47
2018-09-19T03:20:10.251Z,7.00
2018-09-19T03:22:38.630Z,6.57
2018-09-19T03:25:07.007Z,6.87
2018-09-19T03:27:35.361Z,6.60
2018-09-19T03:30:03.718Z,6.33
2018-09-19T03:32:32.041Z,6.43
2018-09-19T03:35:00.420Z,6.77
2018-09-19T03:37:28.786Z,7.03
2018-09-19T03:39:57.115Z,7.10
2018-09-19T03:42:26.033Z,6.80
2018-09-19T03:44:54.389Z,7.00
2018-09-19T03:47:22.747Z,6.67
2018-09-19T03:49:51.882Z,6.80
2018-09-19T03:52:20.236Z,6.53
2018-09-19T03:54:48.614Z,6.40
2018-09-19T03:57:16.987Z,7.43
2018-09-19T03:59:45.305Z,7.47
2018-09-19T04:02:13.693Z,7.70
2018-09-19T04:04:42.079Z,7.00
2018-09-19T04:07:10.430Z,7.20
2018-09-19T04:09:38.808Z,6.43
2018-09-19T04:12:07.212Z,7.57
2018-09-19T04:14:35.587Z,7.43
2018-09-19T04:17:03.963Z,7.23
2018-09-19T04:19:32.306Z,6.60
2018-09-19T04:22:00.631Z,7.33
2018-09-19T04:24:28.989Z,7.37
2018-09-19T04:26:57.339Z,7.27
2018-09-19T04:29:25.689Z,7.73
2018-09-19T04:31:54.058Z,7.27
2018-09-19T04:34:22.405Z,7.10
2018-09-19T04:36:51.138Z,7.43
2018-09-19T04:39:19.474Z,7.37
2018-09-19T04:41:47.837Z,7.17
2018-09-19T04:44:16.243Z,7.03
2018-09-19T04:46:44.575Z,7.90
2018-09-19T04:49:12.907Z,7.40
2018-09-19T04:51:41.355Z,7.60
2018-09-19T04:54:09.840Z,21.67
2018-09-19T04:56:38.647Z,11.23
2018-09-19T04:59:06.987Z,11.97
2018-09-19T05:01:35.319Z,14.40
2018-09-19T05:04:03.653Z,11.20
2018-09-19T05:06:32.013Z,9.87
2018-09-19T05:09:00.368Z,13.13
2018-09-19T05:11:28.739Z,11.30
2018-09-19T05:13:57.079Z,11.37
2018-09-19T05:16:25.465Z,10.30
2018-09-19T05:18:53.800Z,11.30
2018-09-19T05:21:22.145Z,9.77
2018-09-19T05:23:50.509Z,9.60
2018-09-19T05:26:19.102Z,9.80
2018-09-19T05:28:47.457Z,9.87
2018-09-19T05:31:15.811Z,9.13
2018-09-19T05:33:44.321Z,8.57
2018-09-19T05:36:12.625Z,7.73
2018-09-19T05:38:40.969Z,8.23
2018-09-19T05:41:09.657Z,9.03
2018-09-19T05:43:38.015Z,8.50
2018-09-19T05:46:06.620Z,9.17
2018-09-19T05:48:35.592Z,8.33
2018-09-19T05:51:03.942Z,8.33
2018-09-19T05:53:32.293Z,10.07
2018-09-19T05:56:00.739Z,9.37
2018-09-19T05:58:29.079Z,8.73
2018-09-19T06:00:57.458Z,8.77
2018-09-19T06:03:25.792Z,9.03
2018-09-19T06:05:54.144Z,8.43
2018-09-19T06:08:22.491Z,9.17
2018-09-19T06:10:50.859Z,8.47
2018-09-19T06:13:19.226Z,9.10
2018-09-19T06:15:48.175Z,8.37
2018-09-19T06:18:16.524Z,9.40
2018-09-19T06:20:44.899Z,8.50
2018-09-19T06:23:13.252Z,8.77
2018-09-19T06:25:41.596Z,8.37
2018-09-19T06:28:09.966Z,8.77
2018-09-19T06:30:38.313Z,8.37
2018-09-19T06:33:06.827Z,8.30
2018-09-19T06:35:35.165Z,8.53
2018-09-19T06:38:03.520Z,8.33
2018-09-19T06:40:31.907Z,8.97
2018-09-19T06:43:00.551Z,9.40
2018-09-19T06:45:28.909Z,9.00
2018-09-19T06:47:57.303Z,9.07
2018-09-19T06:50:25.700Z,8.60
2018-09-19T06:52:54.051Z,9.00
2018-09-19T06:55:22.375Z,8.53
2018-09-19T06:57:51.138Z,8.80
2018-09-19T07:00:19.529Z,8.93
2018-09-19T07:02:47.996Z,8.37
2018-09-19T07:05:16.335Z,7.77
2018-09-19T07:07:44.726Z,8.43
2018-09-19T07:10:13.060Z,8.87
2018-09-19T07:12:41.434Z,8.13
2018-09-19T07:15:09.784Z,7.43
2018-09-19T07:17:38.140Z,7.73
2018-09-19T07:20:06.655Z,8.40
2018-09-19T07:22:34.988Z,7.67
2018-09-19T07:25:03.412Z,7.93
2018-09-19T07:27:31.784Z,7.43
2018-09-19T07:30:00.130Z,7.43
2018-09-19T07:32:28.510Z,7.37
2018-09-19T07:34:56.857Z,7.67
2018-09-19T07:37:25.199Z,7.43
2018-09-19T07:39:53.545Z,7.50
2018-09-19T07:42:21.927Z,7.47
2018-09-19T07:44:50.258Z,7.60
2018-09-19T07:47:18.597Z,6.80
2018-09-19T07:49:47.095Z,7.37
2018-09-19T07:52:28.712Z,6.77
2018-09-19T07:54:57.315Z,6.47
2018-09-19T07:57:29.499Z,7.50
2018-09-19T07:59:57.899Z,6.87
2018-09-19T08:02:26.267Z,6.67
2018-09-19T08:04:55.321Z,7.43
2018-09-19T08:07:23.756Z,6.47
2018-09-19T08:09:52.118Z,6.80
2018-09-19T08:12:20.560Z,6.40
2018-09-19T08:14:49.040Z,6.30
2018-09-19T08:17:17.404Z,6.23
2018-09-19T08:19:45.756Z,7.13
2018-09-19T08:22:14.121Z,6.20
2018-09-19T08:24:42.559Z,6.37
2018-09-19T08:27:10.927Z,6.40
2018-09-19T08:29:39.305Z,5.83
2018-09-19T08:32:07.638Z,5.53
2018-09-19T08:34:36.152Z,5.87
2018-09-19T08:37:04.569Z,6.60
2018-09-19T08:39:33.113Z,5.67
2018-09-19T08:42:01.565Z,6.23
2018-09-19T08:44:29.905Z,6.00
2018-09-19T08:46:58.288Z,6.30
2018-09-19T08:49:26.677Z,5.57
2018-09-19T08:51:55.025Z,5.50
2018-09-19T08:54:23.410Z,5.70
2018-09-19T08:56:51.819Z,5.30
2018-09-19T08:59:20.227Z,6.23
2018-09-19T09:01:48.865Z,5.60
2018-09-19T09:04:17.236Z,6.00
2018-09-19T09:06:45.689Z,5.53
2018-09-19T09:09:14.010Z,5.20
2018-09-19T09:11:42.389Z,5.07
2018-09-19T09:14:10.794Z,6.00
2018-09-19T09:16:39.175Z,6.03
2018-09-19T09:19:07.552Z,5.70
2018-09-19T09:21:35.948Z,5.60
2018-09-19T09:24:04.311Z,5.70
2018-09-19T09:26:32.676Z,5.62
2018-09-19T09:29:01.029Z,5.75
2018-09-19T09:31:29.376Z,5.67
2018-09-19T09:33:57.860Z,5.45
2018-09-19T09:36:26.308Z,5.83
2018-09-19T09:38:56.297Z,5.67
2018-09-19T09:41:24.672Z,5.87
2018-09-19T09:43:53.020Z,4.97
2018-09-19T09:46:21.402Z,5.05
2018-09-19T09:48:49.762Z,4.97
2018-09-19T09:51:18.145Z,5.00
2018-09-19T09:53:46.500Z,5.28
2018-09-19T09:56:14.847Z,4.85
2018-09-19T09:58:44.211Z,5.33
2018-09-19T10:01:12.629Z,4.85
2018-09-19T10:03:41.006Z,4.75
2018-09-19T10:06:09.382Z,4.75
2018-09-19T10:08:37.847Z,4.97
2018-09-19T10:11:06.804Z,4.67
2018-09-19T10:13:35.224Z,4.50
2018-09-19T10:16:03.585Z,4.90
2018-09-19T10:18:32.028Z,4.72
2018-09-19T10:21:00.385Z,4.75
2018-09-19T10:23:28.779Z,5.40
2018-09-19T10:25:57.156Z,4.83
2018-09-19T10:28:25.532Z,4.72
2018-09-19T10:30:53.925Z,4.70
2018-09-19T10:33:22.267Z,5.55
2018-09-19T10:35:50.640Z,6.05
2018-09-19T10:38:19.579Z,6.15
2018-09-19T10:40:47.923Z,5.78
2018-09-19T10:43:16.323Z,6.20
2018-09-19T10:45:44.690Z,5.37
2018-09-19T10:48:13.083Z,6.00
2018-09-19T10:50:41.467Z,5.35
2018-09-19T10:53:09.860Z,4.80
2018-09-19T10:55:38.247Z,4.65
2018-09-19T10:58:06.610Z,4.25
2018-09-19T11:00:34.975Z,4.62
2018-09-19T11:03:03.326Z,4.87
2018-09-19T11:05:31.776Z,4.87
2018-09-19T11:08:00.159Z,4.95
2018-09-19T11:10:28.509Z,5.62
2018-09-19T11:12:56.884Z,5.05
2018-09-19T11:15:25.792Z,5.97
2018-09-19T11:17:54.110Z,5.50
2018-09-19T11:20:22.470Z,5.85
2018-09-19T11:22:50.797Z,6.10
2018-09-19T11:25:19.156Z,6.00
2018-09-19T11:27:47.505Z,5.70
2018-09-19T11:30:15.849Z,5.10
2018-09-19T11:32:44.189Z,5.70
2018-09-19T11:35:12.580Z,5.17
2018-09-19T11:37:40.971Z,5.90
2018-09-19T11:40:09.398Z,5.33
2018-09-19T11:42:37.748Z,5.07
2018-09-19T11:45:06.125Z,5.27
2018-09-19T11:47:34.536Z,5.47
2018-09-19T11:50:02.879Z,5.57
2018-09-19T11:52:31.231Z,5.73
2018-09-19T11:54:59.566Z,5.50
2018-09-19T11:57:27.947Z,5.00
2018-09-19T11:59:56.290Z,5.17
2018-09-19T12:02:24.680Z,5.67
2018-09-19T12:04:53.050Z,4.57
2018-09-19T12:07:21.448Z,4.80
2018-09-19T12:09:49.810Z,4.43
2018-09-19T12:12:18.160Z,5.03
2018-09-19T12:14:46.517Z,4.70
2018-09-19T12:17:14.923Z,5.00
2018-09-19T12:19:43.586Z,4.90
2018-09-19T12:22:11.950Z,5.33
2018-09-19T12:24:40.328Z,5.17
2018-09-19T12:27:08.705Z,5.40
2018-09-19T12:29:37.060Z,4.83
2018-09-19T12:32:06.144Z,4.90
2018-09-19T12:34:35.452Z,4.97
2018-09-19T12:37:03.961Z,5.07
2018-09-19T12:39:32.329Z,4.70
2018-09-19T12:42:00.650Z,4.43
2018-09-19T12:44:28.996Z,4.30
2018-09-19T12:46:57.348Z,4.80
2018-09-19T12:49:25.739Z,4.83
2018-09-19T12:51:54.132Z,4.90
2018-09-19T12:54:22.483Z,4.40
2018-09-19T12:56:50.828Z,5.00
2018-09-19T12:59:19.317Z,4.73
2018-09-19T13:01:47.700Z,4.50
2018-09-19T13:04:16.684Z,4.50
2018-09-19T13:06:45.065Z,4.47
2018-09-19T13:09:13.443Z,4.40
2018-09-19T13:11:41.933Z,4.13
2018-09-19T13:14:10.348Z,4.10
2018-09-19T13:16:38.820Z,4.10
2018-09-19T13:19:07.192Z,4.20
2018-09-19T13:21:35.605Z,4.40
2018-09-19T13:24:03.986Z,4.67
2018-09-19T13:26:32.367Z,4.53
2018-09-19T13:29:00.817Z,4.30
2018-09-19T13:31:29.256Z,4.37
2018-09-19T13:33:57.663Z,4.27
2018-09-19T13:36:27.656Z,4.57
2018-09-19T13:38:56.484Z,4.43
2018-09-19T13:41:24.962Z,4.60
2018-09-19T13:43:53.341Z,4.53
2018-09-19T13:46:21.834Z,4.00
2018-09-19T13:48:54.698Z,4.50
2018-09-19T13:51:24.794Z,4.00
2018-09-19T13:53:53.377Z,4.70
2018-09-19T13:56:22.075Z,4.00
2018-09-19T13:58:50.608Z,4.80
2018-09-19T14:01:19.018Z,4.57
2018-09-19T14:03:47.393Z,4.40
2018-09-19T14:06:15.753Z,3.83
2018-09-19T14:08:44.251Z,4.10
2018-09-19T14:11:12.640Z,4.83
2018-09-19T14:13:41.019Z,4.33
2018-09-19T14:16:09.588Z,4.87
2018-09-19T14:18:37.992Z,4.80
2018-09-19T14:21:06.370Z,4.73
2018-09-19T14:23:34.749Z,4.90
2018-09-19T14:26:03.147Z,5.60
2018-09-19T14:28:31.589Z,5.27
2018-09-19T14:30:59.953Z,5.70
2018-09-19T14:33:28.359Z,5.67
2018-09-19T14:35:56.793Z,5.27
2018-09-19T14:38:25.327Z,6.03
2018-09-19T14:40:54.558Z,6.43
2018-09-19T14:43:22.911Z,5.80
2018-09-19T14:45:51.263Z,5.80
2018-09-19T14:48:19.667Z,6.93
2018-09-19T14:50:48.052Z,6.37
2018-09-19T14:53:16.474Z,6.37
2018-09-19T14:55:44.838Z,6.40
2018-09-19T14:58:13.197Z,6.67
2018-09-19T15:00:41.564Z,7.10
2018-09-19T15:03:10.646Z,6.80
2018-09-19T15:05:38.968Z,6.87
2018-09-19T15:08:07.343Z,6.80
2018-09-19T15:10:35.689Z,6.77
2018-09-19T15:13:04.109Z,6.53
2018-09-19T15:15:33.030Z,6.80
2018-09-19T15:18:01.418Z,7.00
2018-09-19T15:20:29.816Z,6.77
2018-09-19T15:22:58.187Z,7.27
2018-09-19T15:25:26.550Z,7.57
2018-09-19T15:27:54.890Z,7.57
2018-09-19T15:30:23.253Z,8.27
2018-09-19T15:32:51.603Z,7.87
2018-09-19T15:35:19.964Z,7.73
2018-09-19T15:37:48.310Z,7.17
2018-09-19T15:40:16.648Z,8.00
2018-09-19T15:42:45.049Z,8.00
2018-09-19T15:45:13.442Z,8.57
2018-09-19T15:47:41.850Z,8.17
2018-09-19T15:50:10.251Z,8.37
2018-09-19T15:52:38.748Z,8.33
2018-09-19T15:55:07.649Z,8.30
2018-09-19T15:57:36.140Z,8.83
2018-09-19T16:00:04.881Z,9.93
2018-09-19T16:02:33.272Z,8.80
2018-09-19T16:05:01.672Z,8.37
2018-09-19T16:07:30.251Z,8.03
2018-09-19T16:09:58.672Z,8.47
2018-09-19T16:12:27.050Z,7.50
2018-09-19T16:14:55.650Z,8.53
2018-09-19T16:17:24.008Z,7.83
2018-09-19T16:19:52.424Z,8.17
2018-09-19T16:22:21.370Z,8.00
2018-09-19T16:24:49.932Z,8.97
2018-09-19T16:27:18.298Z,9.07
2018-09-19T16:29:46.949Z,8.80
2018-09-19T16:32:15.282Z,8.47
2018-09-19T16:34:43.621Z,8.40
2018-09-19T16:37:11.954Z,8.43
2018-09-19T16:39:40.453Z,9.30
2018-09-19T16:42:08.834Z,9.80
2018-09-19T16:44:37.348Z,8.43
2018-09-19T16:47:06.151Z,8.60
2018-09-19T16:49:34.527Z,8.90
2018-09-19T16:52:02.931Z,8.57
2018-09-19T16:54:31.701Z,8.83
2018-09-19T16:57:00.161Z,8.60
2018-09-19T16:59:28.576Z,8.73
2018-09-19T17:01:57.016Z,7.83
2018-09-19T17:04:25.495Z,8.87
2018-09-19T17:06:53.880Z,9.40
2018-09-19T17:09:22.364Z,9.27
2018-09-19T17:11:50.713Z,9.23
2018-09-19T17:14:19.070Z,9.10
2018-09-19T17:16:47.469Z,10.63
2018-09-19T17:19:15.945Z,10.40
2018-09-19T17:21:44.298Z,10.10
2018-09-19T17:24:13.580Z,10.97
2018-09-19T17:26:42.143Z,11.33
2018-09-19T17:29:10.553Z,14.53
2018-09-19T17:31:38.936Z,11.20
2018-09-19T17:34:07.303Z,10.77
2018-09-19T17:36:35.863Z,11.87
2018-09-19T17:39:06.523Z,10.60
2018-09-19T17:41:34.879Z,11.87
2018-09-19T17:44:04.283Z,11.57
2018-09-19T17:46:32.686Z,14.37
2018-09-19T17:49:01.216Z,11.93
2018-09-19T17:51:29.591Z,12.17
2018-09-19T17:53:57.935Z,10.93
2018-09-19T17:56:26.375Z,10.70
2018-09-19T17:58:54.969Z,11.90
2018-09-19T18:01:23.320Z,10.67
2018-09-19T18:03:51.667Z,9.80
2018-09-19T18:06:20.127Z,11.00
2018-09-19T18:08:48.465Z,10.03
2018-09-19T18:11:16.786Z,10.43
2018-09-19T18:13:45.203Z,10.70
2018-09-19T18:16:13.580Z,11.70
2018-09-19T18:18:42.200Z,14.30
2018-09-19T18:21:11.373Z,9.70
2018-09-19T18:23:39.722Z,11.10
2018-09-19T18:26:08.152Z,9.87
2018-09-19T18:28:36.508Z,9.70
2018-09-19T18:31:04.940Z,9.53
2018-09-19T18:33:33.352Z,10.33
2018-09-19T18:36:01.699Z,9.30
2018-09-19T18:38:30.091Z,9.27
2018-09-19T18:40:58.447Z,9.97
2018-09-19T18:43:26.794Z,9.47
2018-09-19T18:45:55.155Z,9.50
2018-09-19T18:48:23.537Z,8.80
2018-09-19T18:50:51.916Z,8.40
2018-09-19T18:53:20.534Z,9.33
2018-09-19T18:55:48.956Z,9.60
2018-09-19T18:58:17.305Z,8.67
2018-09-19T19:10:44.872Z,9.03
2018-09-19T19:13:13.272Z,9.57
2018-09-19T19:15:41.615Z,10.07
2018-09-19T19:18:10.039Z,10.47
2018-09-19T19:20:38.456Z,10.37
2018-09-19T19:23:06.898Z,9.57
2018-09-19T19:25:35.240Z,10.10
2018-09-19T19:28:03.608Z,8.93
2018-09-19T19:30:32.137Z,8.67
2018-09-19T19:34:29.590Z,9.17
2018-09-19T19:36:58.595Z,9.30
2018-09-19T19:39:27.034Z,8.77
2018-09-19T19:41:55.411Z,9.73
2018-09-19T19:44:23.759Z,8.47
2018-09-19T19:46:52.163Z,10.10
2018-09-19T19:49:20.522Z,9.93
2018-09-19T19:51:48.880Z,9.70
2018-09-19T19:54:17.246Z,9.50
2018-09-19T19:56:45.678Z,8.87
2018-09-19T19:59:14.273Z,9.60
2018-09-19T20:01:42.619Z,9.70
2018-09-19T20:04:10.950Z,8.50
2018-09-19T20:06:39.321Z,8.80
2018-09-19T20:09:08.940Z,9.17
2018-09-19T20:11:37.702Z,9.47
2018-09-19T20:14:07.004Z,8.10
2018-09-19T20:16:35.407Z,8.27
2018-09-19T20:19:03.881Z,8.73
2018-09-19T20:21:32.280Z,9.10
2018-09-19T20:24:00.660Z,18.97
2018-09-19T20:26:29.013Z,9.13
2018-09-19T20:28:57.398Z,11.40
2018-09-19T20:31:25.844Z,12.00
2018-09-19T20:33:54.212Z,11.83
2018-09-19T20:36:22.555Z,11.00
2018-09-19T20:38:50.970Z,10.03
2018-09-19T20:41:19.453Z,11.53
2018-09-19T20:43:47.784Z,10.37
2018-09-19T20:46:16.681Z,9.30
2018-09-19T20:48:45.003Z,8.47
2018-09-19T20:51:13.500Z,8.10
2018-09-19T20:53:41.872Z,6.87
2018-09-19T20:56:10.207Z,8.10
2018-09-19T20:58:38.751Z,6.97
2018-09-19T21:01:07.304Z,6.87
2018-09-19T21:03:35.653Z,7.43
2018-09-19T21:06:04.072Z,7.30
2018-09-19T21:08:32.651Z,7.27
2018-09-19T21:11:01.151Z,7.23
2018-09-19T21:13:29.547Z,7.20
2018-09-19T21:15:57.917Z,7.40
2018-09-19T21:18:26.268Z,7.43
2018-09-19T21:20:54.677Z,6.80
2018-09-19T21:23:23.109Z,7.20
2018-09-19T21:25:51.430Z,6.47
2018-09-19T21:28:19.836Z,6.70
2018-09-19T21:30:48.178Z,6.90
2018-09-19T21:33:16.668Z,6.70
2018-09-19T21:35:45.109Z,6.33
2018-09-19T21:38:13.519Z,7.00
2018-09-19T21:40:41.919Z,6.33
2018-09-19T21:43:13.331Z,6.77
2018-09-19T21:45:41.713Z,6.43
2018-09-19T21:48:10.134Z,5.97
2018-09-19T21:50:42.689Z,6.60
2018-09-19T21:55:40.733Z,6.63
2018-09-19T21:58:09.176Z,6.20
2018-09-19T22:00:38.379Z,6.13
2018-09-19T22:03:11.980Z,6.20
2018-09-19T22:06:18.405Z,6.60
2018-09-19T22:08:46.759Z,6.23
2018-09-19T22:11:15.136Z,6.67
2018-09-19T22:13:43.489Z,5.90
2018-09-19T22:16:19.320Z,6.40
2018-09-19T22:18:48.465Z,6.57
2018-09-19T22:24:30.997Z,6.37
2018-09-19T22:27:00.970Z,5.73
2018-09-19T22:32:23.554Z,6.23
2018-09-19T22:34:52.848Z,6.33
2018-09-19T22:37:22.091Z,7.00
2018-09-19T22:39:51.170Z,6.20
2018-09-19T22:42:20.454Z,5.90
2018-09-19T22:44:51.568Z,6.20
2018-09-19T22:47:20.858Z,6.77
2018-09-19T22:49:51.427Z,6.53
2018-09-19T22:52:20.590Z,6.43
2018-09-19T22:54:49.877Z,6.33
2018-09-19T22:57:19.128Z,6.03
2018-09-19T22:59:48.871Z,6.47
2018-09-19T23:02:19.946Z,6.80
2018-09-19T23:04:50.703Z,6.37
2018-09-19T23:07:20.096Z,6.77
2018-09-19T23:09:50.000Z,6.43
2018-09-19T23:12:20.688Z,6.33
2018-09-19T23:14:51.599Z,6.67
2018-09-19T23:17:21.757Z,6.60
2018-09-19T23:19:52.714Z,6.00
2018-09-19T23:22:21.947Z,6.23
2018-09-19T23:24:51.867Z,6.00
2018-09-19T23:27:21.652Z,6.03
2018-09-19T23:29:51.800Z,6.50
2018-09-19T23:32:22.784Z,6.00
2018-09-19T23:34:52.898Z,6.00
2018-09-19T23:37:23.152Z,6.30
2018-09-19T23:39:53.165Z,6.40
2018-09-19T23:42:24.167Z,6.30
2018-09-19T23:44:54.144Z,6.33
2018-09-19T23:47:24.238Z,6.10
2018-09-19T23:49:54.527Z,5.90
2018-09-19T23:52:25.556Z,5.60
2018-09-19T23:54:55.967Z,6.37
2018-09-19T23:57:26.199Z,6.23
2018-09-19T23:59:57.018Z,5.97
